Time;durP1;ratioP1;P1;durP2;ratioP2;P2;SDS_P1;SDS_P2;PMS_P1;PMS_P2;Temp;Humidity;BMP_temperature;BMP_pressure;BME280_temperature;BME280_humidity;BME280_pressure;Samples;Min_cycle;Max_cycle;Signal;HPM_P1;HPM_P2
2023/09/25 00:00:48;;;;;;;6.10;3.47;;;;;;;;;;5109456;28;20080;-57
2023/09/25 00:03:13;;;;;;;5.40;3.40;;;;;;;;;;5108914;28;20115;-58
2023/09/25 00:05:39;;;;;;;5.50;3.55;;;;;;;;;;5103265;28;20180;-59
2023/09/25 00:08:05;;;;;;;7.03;3.55;;;;;;;;;;5099857;28;20031;-58
2023/09/25 00:10:33;;;;;;;5.85;3.53;;;;;;;;;;5109505;28;20684;-57
2023/09/25 00:12:59;;;;;;;6.10;3.38;;;;;;;;;;5106746;28;20114;-58
2023/09/25 00:15:25;;;;;;;6.82;3.35;;;;;;;;;;5107744;28;20039;-58
2023/09/25 00:17:50;;;;;;;5.43;3.33;;;;;;;;;;5090377;28;20123;-58
2023/09/25 00:20:19;;;;;;;7.45;3.75;;;;;;;;;;5109364;28;20071;-58
2023/09/25 00:22:45;;;;;;;6.30;3.42;;;;;;;;;;5092638;28;20020;-57
2023/09/25 00:25:11;;;;;;;7.68;3.58;;;;;;;;;;5111595;28;20024;-56
2023/09/25 00:27:36;;;;;;;5.05;3.60;;;;;;;;;;5106939;28;20446;-57
2023/09/25 00:30:05;;;;;;;5.38;3.40;;;;;;;;;;5072680;28;20035;-62
2023/09/25 00:32:31;;;;;;;6.90;3.30;;;;;;;;;;5104868;28;20059;-57
2023/09/25 00:34:56;;;;;;;7.50;3.83;;;;;;;;;;5110182;28;20427;-58
2023/09/25 00:37:22;;;;;;;7.38;3.60;;;;;;;;;;5114793;28;20034;-60
2023/09/25 00:39:48;;;;;;;6.40;3.72;;;;;;;;;;5114962;28;20375;-58
2023/09/25 00:42:13;;;;;;;7.10;3.97;;;;;;;;;;5113652;28;20055;-59
2023/09/25 00:44:39;;;;;;;6.45;3.65;;;;;;;;;;5113553;28;20063;-58
2023/09/25 00:47:05;;;;;;;6.22;3.53;;;;;;;;;;5078053;28;20045;-58
2023/09/25 00:49:31;;;;;;;5.13;3.38;;;;;;;;;;5113479;28;20035;-57
2023/09/25 00:51:58;;;;;;;7.93;3.88;;;;;;;;;;5113756;28;20028;-59
2023/09/25 00:54:24;;;;;;;5.32;3.70;;;;;;;;;;5086522;28;20039;-58
2023/09/25 00:56:50;;;;;;;7.65;3.72;;;;;;;;;;5075029;28;20023;-58
2023/09/25 00:59:16;;;;;;;6.50;3.42;;;;;;;;;;5112592;28;20081;-59
2023/09/25 01:01:42;;;;;;;6.15;3.78;;;;;;;;;;5092931;28;20024;-58
2023/09/25 01:04:08;;;;;;;5.78;3.40;;;;;;;;;;5113877;28;20365;-58
2023/09/25 01:06:37;;;;;;;8.88;3.58;;;;;;;;;;5112932;28;20119;-57
2023/09/25 01:09:04;;;;;;;5.72;3.70;;;;;;;;;;5113163;28;20480;-60
2023/09/25 01:11:29;;;;;;;6.15;3.50;;;;;;;;;;5092471;28;20035;-59
2023/09/25 01:13:55;;;;;;;7.32;3.92;;;;;;;;;;5090931;28;20023;-58
2023/09/25 01:16:24;;;;;;;6.65;3.97;;;;;;;;;;5093656;28;20032;-57
2023/09/25 01:18:49;;;;;;;5.85;3.50;;;;;;;;;;5110380;28;20028;-57
2023/09/25 01:21:14;;;;;;;5.95;3.60;;;;;;;;;;5094931;28;20054;-57
2023/09/25 01:23:40;;;;;;;5.32;3.65;;;;;;;;;;5109553;28;20046;-58
2023/09/25 01:26:05;;;;;;;5.50;3.50;;;;;;;;;;5096284;28;20379;-58
2023/09/25 01:28:31;;;;;;;4.40;3.40;;;;;;;;;;5109484;28;20384;-58
2023/09/25 01:30:58;;;;;;;6.30;3.50;;;;;;;;;;5111769;28;20122;-58
2023/09/25 01:33:24;;;;;;;6.30;3.50;;;;;;;;;;5111456;28;20039;-57
2023/09/25 01:35:49;;;;;;;6.38;3.30;;;;;;;;;;5111493;28;20031;-59
2023/09/25 01:38:15;;;;;;;6.13;3.20;;;;;;;;;;5111919;28;20468;-58
2023/09/25 01:40:40;;;;;;;5.60;3.53;;;;;;;;;;5112335;28;20038;-58
2023/09/25 01:43:06;;;;;;;6.03;3.60;;;;;;;;;;5094592;28;20032;-58
2023/09/25 01:45:31;;;;;;;5.47;3.30;;;;;;;;;;5108545;28;20059;-58
2023/09/25 01:47:57;;;;;;;5.68;3.40;;;;;;;;;;5111056;28;20035;-59
2023/09/25 01:50:27;;;;;;;6.05;3.38;;;;;;;;;;5111022;28;20031;-58
2023/09/25 01:52:57;;;;;;;5.20;3.03;;;;;;;;;;5111126;28;20085;-60
2023/09/25 01:55:26;;;;;;;5.53;3.00;;;;;;;;;;5111321;28;20042;-56
2023/09/25 01:57:51;;;;;;;6.30;3.20;;;;;;;;;;5112787;28;20035;-56
2023/09/25 02:00:18;;;;;;;5.97;3.20;;;;;;;;;;5113174;28;20035;-59
2023/09/25 02:02:47;;;;;;;4.18;3.15;;;;;;;;;;5108706;28;20040;-59
2023/09/25 02:05:12;;;;;;;7.28;3.20;;;;;;;;;;5108511;28;20032;-59
2023/09/25 02:07:38;;;;;;;5.10;3.40;;;;;;;;;;5112493;28;20039;-58
2023/09/25 02:10:03;;;;;;;4.05;2.97;;;;;;;;;;5113239;28;20027;-58
2023/09/25 02:12:29;;;;;;;4.72;3.13;;;;;;;;;;5110752;28;20027;-58
2023/09/25 02:14:58;;;;;;;5.07;3.05;;;;;;;;;;5109514;28;20084;-58
2023/09/25 02:17:23;;;;;;;3.97;2.70;;;;;;;;;;5092462;28;20046;-57
2023/09/25 02:19:50;;;;;;;4.55;2.90;;;;;;;;;;5109493;28;20035;-58
2023/09/25 02:22:16;;;;;;;5.20;3.25;;;;;;;;;;5107060;28;20085;-57
2023/09/25 02:24:42;;;;;;;4.80;3.08;;;;;;;;;;5112448;28;20028;-58
2023/09/25 02:27:07;;;;;;;4.57;3.13;;;;;;;;;;5110473;28;20059;-57
2023/09/25 02:29:33;;;;;;;5.82;3.03;;;;;;;;;;5108460;28;20082;-59
2023/09/25 02:31:58;;;;;;;4.28;2.90;;;;;;;;;;5110237;28;20248;-58
2023/09/25 02:34:24;;;;;;;4.05;3.05;;;;;;;;;;5111602;28;20042;-58
2023/09/25 02:36:49;;;;;;;4.60;2.88;;;;;;;;;;5109400;28;20080;-58
2023/09/25 02:39:15;;;;;;;4.82;3.03;;;;;;;;;;5112871;28;20019;-56
2023/09/25 02:41:40;;;;;;;5.78;3.25;;;;;;;;;;5109202;28;20990;-56
2023/09/25 02:44:06;;;;;;;4.72;3.30;;;;;;;;;;5110595;28;20024;-56
2023/09/25 02:46:32;;;;;;;4.30;2.95;;;;;;;;;;5110632;28;20038;-58
2023/09/25 02:48:57;;;;;;;6.03;3.42;;;;;;;;;;5112147;28;20043;-57
2023/09/25 02:51:23;;;;;;;8.27;3.22;;;;;;;;;;5111418;28;20035;-57
2023/09/25 02:53:48;;;;;;;6.35;3.35;;;;;;;;;;5106905;28;20039;-59
2023/09/25 02:56:14;;;;;;;5.45;3.42;;;;;;;;;;5091201;28;20035;-58
2023/09/25 02:58:39;;;;;;;5.60;3.35;;;;;;;;;;5110476;28;20051;-56
2023/09/25 03:01:05;;;;;;;6.00;3.20;;;;;;;;;;5111877;28;20027;-59
2023/09/25 03:03:33;;;;;;;5.70;3.47;;;;;;;;;;5110728;28;20088;-58
2023/09/25 03:05:58;;;;;;;5.07;3.25;;;;;;;;;;5106440;28;20406;-58
2023/09/25 03:08:24;;;;;;;6.00;2.75;;;;;;;;;;5092364;28;20475;-58
2023/09/25 03:10:49;;;;;;;6.30;3.53;;;;;;;;;;5110853;28;20031;-59
2023/09/25 03:13:14;;;;;;;5.03;3.30;;;;;;;;;;5091936;28;20409;-57
2023/09/25 03:15:40;;;;;;;5.53;3.72;;;;;;;;;;5110251;28;20054;-57
2023/09/25 03:18:05;;;;;;;5.20;3.40;;;;;;;;;;5111663;28;20027;-58
2023/09/25 03:20:31;;;;;;;5.50;3.60;;;;;;;;;;5109177;28;20407;-58
2023/09/25 03:22:56;;;;;;;5.90;3.45;;;;;;;;;;5110578;28;20386;-58
2023/09/25 03:25:23;;;;;;;4.93;3.20;;;;;;;;;;5105992;28;20113;-58
2023/09/25 03:27:49;;;;;;;6.03;3.55;;;;;;;;;;5106346;28;20032;-58
2023/09/25 03:30:15;;;;;;;5.05;3.30;;;;;;;;;;5109775;28;20097;-55
2023/09/25 03:32:41;;;;;;;6.72;3.20;;;;;;;;;;5108657;28;20482;-58
2023/09/25 03:35:07;;;;;;;5.07;3.13;;;;;;;;;;5107772;28;20040;-58
2023/09/25 03:37:33;;;;;;;7.70;3.30;;;;;;;;;;5091510;28;20031;-59
2023/09/25 03:39:59;;;;;;;6.45;3.72;;;;;;;;;;5110127;28;20479;-60
2023/09/25 03:42:24;;;;;;;5.47;3.17;;;;;;;;;;5110443;28;20428;-59
2023/09/25 03:44:51;;;;;;;5.25;3.42;;;;;;;;;;5091043;28;20059;-59
2023/09/25 03:47:18;;;;;;;5.47;3.40;;;;;;;;;;5105204;28;20059;-60
2023/09/25 03:49:44;;;;;;;6.22;3.38;;;;;;;;;;5093423;28;20031;-58
2023/09/25 03:52:09;;;;;;;6.22;3.40;;;;;;;;;;5091773;28;20035;-59
2023/09/25 03:54:34;;;;;;;5.63;3.55;;;;;;;;;;5110345;28;20040;-59
2023/09/25 03:57:03;;;;;;;6.70;3.50;;;;;;;;;;5089073;28;20039;-57
2023/09/25 03:59:28;;;;;;;7.32;3.45;;;;;;;;;;5092868;28;20034;-59
2023/09/25 04:01:54;;;;;;;6.75;3.70;;;;;;;;;;5109473;28;20118;-58
2023/09/25 04:04:19;;;;;;;6.53;3.80;;;;;;;;;;5110980;28;20038;-62
2023/09/25 04:06:45;;;;;;;7.82;4.00;;;;;;;;;;5109067;28;20032;-57
2023/09/25 04:09:10;;;;;;;7.07;4.03;;;;;;;;;;5108726;28;20020;-58
2023/09/25 04:11:36;;;;;;;5.60;3.53;;;;;;;;;;5112155;28;20032;-57
2023/09/25 04:14:02;;;;;;;6.03;3.30;;;;;;;;;;5111845;28;20039;-58
2023/09/25 04:16:33;;;;;;;6.60;3.83;;;;;;;;;;5112746;28;20451;-58
2023/09/25 04:18:58;;;;;;;7.68;3.75;;;;;;;;;;5114219;28;20063;-58
2023/09/25 04:21:24;;;;;;;7.00;3.55;;;;;;;;;;5114666;28;20075;-58
2023/09/25 04:23:49;;;;;;;5.32;3.45;;;;;;;;;;5095449;28;20028;-58
2023/09/25 04:26:16;;;;;;;4.70;3.33;;;;;;;;;;5113901;28;20110;-58
2023/09/25 04:28:42;;;;;;;4.50;3.28;;;;;;;;;;5097309;28;20031;-58
2023/09/25 04:31:09;;;;;;;6.07;3.50;;;;;;;;;;5112339;28;20097;-57
2023/09/25 04:33:35;;;;;;;7.95;3.45;;;;;;;;;;5095155;28;20031;-59
2023/09/25 04:36:01;;;;;;;6.88;3.80;;;;;;;;;;5113055;28;20028;-60
2023/09/25 04:38:30;;;;;;;6.03;3.55;;;;;;;;;;5115309;28;20173;-59
2023/09/25 04:40:56;;;;;;;6.75;3.88;;;;;;;;;;5111872;28;20399;-59
2023/09/25 04:43:22;;;;;;;6.90;3.70;;;;;;;;;;5112166;28;20050;-59
2023/09/25 04:45:51;;;;;;;6.30;3.38;;;;;;;;;;5112474;28;20023;-60
2023/09/25 04:48:20;;;;;;;5.22;3.40;;;;;;;;;;5100666;28;20028;-59
2023/09/25 04:50:46;;;;;;;5.68;3.38;;;;;;;;;;5101361;28;20094;-59
2023/09/25 04:53:11;;;;;;;6.00;3.40;;;;;;;;;;5115459;28;20031;-59
2023/09/25 04:55:40;;;;;;;8.43;3.50;;;;;;;;;;5083915;28;20086;-58
2023/09/25 04:58:06;;;;;;;5.10;3.15;;;;;;;;;;5102536;28;20330;-59
2023/09/25 05:00:32;;;;;;;5.65;3.40;;;;;;;;;;5114944;28;20066;-58
2023/09/25 05:03:01;;;;;;;6.32;3.40;;;;;;;;;;5104531;28;20052;-59
2023/09/25 05:05:27;;;;;;;5.93;3.42;;;;;;;;;;5111670;28;20031;-61
2023/09/25 05:07:54;;;;;;;8.20;3.60;;;;;;;;;;5114292;28;20032;-59
2023/09/25 05:10:23;;;;;;;6.47;3.22;;;;;;;;;;5096897;28;20028;-59
2023/09/25 05:12:49;;;;;;;8.18;3.58;;;;;;;;;;5114459;28;20038;-64
2023/09/25 05:15:16;;;;;;;4.60;3.00;;;;;;;;;;5114161;28;20040;-60
2023/09/25 05:17:43;;;;;;;5.63;3.10;;;;;;;;;;5114630;28;20034;-59
2023/09/25 05:20:15;;;;;;;5.80;3.00;;;;;;;;;;5113481;28;20089;-59
2023/09/25 05:22:52;;;;;;;3.97;2.75;;;;;;;;;;5093916;28;20031;-60
2023/09/25 05:25:19;;;;;;;5.57;3.08;;;;;;;;;;5113934;28;20084;-60
2023/09/25 05:27:46;;;;;;;6.05;2.85;;;;;;;;;;5112996;28;20035;-54
2023/09/25 05:30:13;;;;;;;4.35;2.67;;;;;;;;;;5095686;28;20035;-49
2023/09/25 05:32:41;;;;;;;5.63;2.50;;;;;;;;;;5095528;28;20107;-53
2023/09/25 05:35:08;;;;;;;4.38;2.63;;;;;;;;;;5094508;28;20024;-59
2023/09/25 05:37:33;;;;;;;4.03;2.63;;;;;;;;;;5080133;28;20039;-55
2023/09/25 05:39:59;;;;;;;3.72;2.58;;;;;;;;;;5075928;28;20028;-50
2023/09/25 05:42:25;;;;;;;3.85;2.45;;;;;;;;;;5103528;28;20043;-53
2023/09/25 05:44:50;;;;;;;4.30;2.60;;;;;;;;;;5113422;28;20391;-55
2023/09/25 05:47:16;;;;;;;4.78;2.72;;;;;;;;;;5111165;28;20027;-53
2023/09/25 05:49:42;;;;;;;4.60;2.60;;;;;;;;;;5108916;28;20079;-55
2023/09/25 05:52:07;;;;;;;4.75;3.08;;;;;;;;;;5092410;28;20027;-59
2023/09/25 05:54:33;;;;;;;4.82;2.75;;;;;;;;;;5093798;28;20100;-52
2023/09/25 05:56:59;;;;;;;5.38;2.90;;;;;;;;;;5080783;28;20430;-55
2023/09/25 05:59:24;;;;;;;4.18;2.60;;;;;;;;;;5093360;28;20468;-55
2023/09/25 06:01:49;;;;;;;4.63;2.63;;;;;;;;;;5093317;28;20106;-56
2023/09/25 06:04:16;;;;;;;5.35;2.58;;;;;;;;;;5098127;28;20076;-56
2023/09/25 06:06:44;;;;;;;4.28;2.30;;;;;;;;;;5087420;28;20139;-57
2023/09/25 06:09:15;;;;;;;4.40;2.53;;;;;;;;;;5107608;28;20028;-56
2023/09/25 06:11:41;;;;;;;;;;;;;;;;;;5080586;28;20032;-55
2023/09/25 06:14:07;;;;;;;4.80;2.88;;;;;;;;;;5092279;28;19911;-56
2023/09/25 06:16:32;;;;;;;4.13;2.40;;;;;;;;;;5094263;28;20042;-53
2023/09/25 06:19:01;;;;;;;4.57;2.70;;;;;;;;;;5079463;28;20067;-56
2023/09/25 06:21:28;;;;;;;4.78;2.78;;;;;;;;;;5108182;28;20094;-56
2023/09/25 06:23:53;;;;;;;7.22;2.60;;;;;;;;;;5111837;28;20032;-54
2023/09/25 06:26:19;;;;;;;4.43;2.78;;;;;;;;;;5110786;28;20391;-55
2023/09/25 06:28:45;;;;;;;4.88;2.65;;;;;;;;;;5074777;28;20038;-58
2023/09/25 06:31:12;;;;;;;5.70;2.58;;;;;;;;;;5092243;28;20064;-59
2023/09/25 06:33:37;;;;;;;4.35;2.83;;;;;;;;;;5081975;28;20119;-58
2023/09/25 06:36:05;;;;;;;4.00;2.60;;;;;;;;;;5092498;28;20134;-52
2023/09/25 06:38:31;;;;;;;8.55;2.80;;;;;;;;;;5089470;28;20483;-53
2023/09/25 06:40:56;;;;;;;5.55;3.10;;;;;;;;;;5093679;28;20032;-57
2023/09/25 06:43:22;;;;;;;5.55;2.70;;;;;;;;;;5104821;28;20039;-57
2023/09/25 06:45:47;;;;;;;4.85;2.70;;;;;;;;;;5096564;28;20039;-57
2023/09/25 06:48:13;;;;;;;8.75;2.83;;;;;;;;;;5112206;28;20023;-55
2023/09/25 06:50:39;;;;;;;5.13;2.67;;;;;;;;;;5094857;28;20024;-58
2023/09/25 06:53:05;;;;;;;4.60;2.50;;;;;;;;;;5112014;28;20096;-56
2023/09/25 06:55:30;;;;;;;4.50;2.65;;;;;;;;;;5098963;28;20107;-55
2023/09/25 06:57:56;;;;;;;3.88;2.60;;;;;;;;;;5095347;28;20024;-56
2023/09/25 07:00:23;;;;;;;7.18;2.55;;;;;;;;;;5092864;28;20024;-57
2023/09/25 07:02:50;;;;;;;4.65;2.45;;;;;;;;;;5074336;28;20031;-56
2023/09/25 07:05:16;;;;;;;4.15;2.67;;;;;;;;;;5091183;28;20031;-56
2023/09/25 07:07:41;;;;;;;4.72;2.30;;;;;;;;;;5105201;28;20027;-55
2023/09/25 07:10:09;;;;;;;5.85;2.50;;;;;;;;;;5111526;28;20035;-55
2023/09/25 07:12:35;;;;;;;8.80;2.78;;;;;;;;;;5112521;28;20464;-60
2023/09/25 07:15:02;;;;;;;4.45;2.35;;;;;;;;;;5092512;28;20042;-55
2023/09/25 07:17:28;;;;;;;4.28;2.40;;;;;;;;;;5104728;28;20035;-57
2023/09/25 07:19:55;;;;;;;3.65;2.47;;;;;;;;;;5091793;28;20043;-57
2023/09/25 07:22:21;;;;;;;4.20;2.25;;;;;;;;;;5073408;28;20031;-55
2023/09/25 07:24:46;;;;;;;5.60;2.28;;;;;;;;;;5092066;28;20028;-57
2023/09/25 07:27:12;;;;;;;3.67;2.40;;;;;;;;;;5091477;28;20032;-57
2023/09/25 07:29:37;;;;;;;5.63;2.50;;;;;;;;;;5092094;28;20073;-56
2023/09/25 07:32:03;;;;;;;4.20;2.40;;;;;;;;;;5085954;28;20452;-56
2023/09/25 07:34:29;;;;;;;4.25;2.30;;;;;;;;;;5110095;28;20050;-55
2023/09/25 07:36:55;;;;;;;4.00;2.28;;;;;;;;;;5091575;28;20461;-57
2023/09/25 07:39:22;;;;;;;6.63;2.40;;;;;;;;;;5073191;28;20073;-54
2023/09/25 07:41:51;;;;;;;6.13;2.33;;;;;;;;;;5108849;28;20464;-55
2023/09/25 07:44:16;;;;;;;3.97;1.98;;;;;;;;;;5099438;28;20024;-62
2023/09/25 07:46:43;;;;;;;5.07;2.30;;;;;;;;;;5111417;28;20096;-57
2023/09/25 07:49:09;;;;;;;6.13;2.67;;;;;;;;;;5077855;28;20050;-58
2023/09/25 07:51:35;;;;;;;3.13;2.05;;;;;;;;;;5089089;28;20464;-58
2023/09/25 07:54:02;;;;;;;5.80;2.05;;;;;;;;;;5111032;28;20031;-57
2023/09/25 07:56:28;;;;;;;4.13;2.00;;;;;;;;;;5094837;28;20039;-60
2023/09/25 07:58:56;;;;;;;4.18;2.10;;;;;;;;;;5102037;28;20032;-58
2023/09/25 08:01:22;;;;;;;3.92;2.00;;;;;;;;;;5095281;28;20032;-59
2023/09/25 08:03:51;;;;;;;3.08;1.80;;;;;;;;;;5091333;28;20020;-57
2023/09/25 08:06:19;;;;;;;4.53;2.10;;;;;;;;;;5091054;28;20317;-59
2023/09/25 08:08:45;;;;;;;4.10;2.05;;;;;;;;;;5083454;28;20435;-58
2023/09/25 08:11:13;;;;;;;3.10;1.95;;;;;;;;;;5108320;28;20036;-59
2023/09/25 08:13:38;;;;;;;2.45;1.70;;;;;;;;;;5110781;28;20039;-55
2023/09/25 08:16:05;;;;;;;5.10;2.22;;;;;;;;;;5100021;28;20031;-56
2023/09/25 08:18:34;;;;;;;3.60;1.92;;;;;;;;;;5111908;28;20029;-61
2023/09/25 08:20:59;;;;;;;3.45;1.90;;;;;;;;;;5110466;28;20173;-60
2023/09/25 08:23:26;;;;;;;2.67;1.80;;;;;;;;;;5111935;28;20110;-59
2023/09/25 08:25:51;;;;;;;2.95;1.80;;;;;;;;;;5105336;28;20035;-60
2023/09/25 08:28:17;;;;;;;2.80;1.60;;;;;;;;;;5072322;28;20487;-61
2023/09/25 08:30:42;;;;;;;3.55;1.65;;;;;;;;;;5091951;28;20078;-59
2023/09/25 08:33:08;;;;;;;2.80;1.65;;;;;;;;;;5106391;28;20035;-59
2023/09/25 08:35:34;;;;;;;3.00;1.92;;;;;;;;;;5085961;28;20456;-58
2023/09/25 08:37:59;;;;;;;4.93;1.80;;;;;;;;;;5093980;28;20076;-58
2023/09/25 08:40:25;;;;;;;4.10;2.10;;;;;;;;;;5087361;28;20447;-58
2023/09/25 08:42:53;;;;;;;4.43;1.90;;;;;;;;;;5091509;28;20111;-56
2023/09/25 08:45:21;;;;;;;2.70;1.60;;;;;;;;;;5090350;28;20086;-58
2023/09/25 08:47:46;;;;;;;4.85;1.85;;;;;;;;;;5076895;28;20031;-58
2023/09/25 08:50:15;;;;;;;4.85;1.92;;;;;;;;;;5107277;28;20054;-53
2023/09/25 08:52:41;;;;;;;2.50;1.67;;;;;;;;;;5091228;28;20031;-59
2023/09/25 08:55:08;;;;;;;3.30;1.70;;;;;;;;;;5090244;28;20107;-57
2023/09/25 08:57:35;;;;;;;5.55;2.00;;;;;;;;;;5090136;28;20126;-59
2023/09/25 09:00:11;;;;;;;3.40;1.80;;;;;;;;;;5095447;28;20027;-59
2023/09/25 09:02:38;;;;;;;2.67;1.83;;;;;;;;;;5115121;28;20027;-58
2023/09/25 09:05:04;;;;;;;2.72;1.80;;;;;;;;;;5095575;28;20063;-59
2023/09/25 09:07:29;;;;;;;2.95;1.77;;;;;;;;;;5105457;28;20074;-60
2023/09/25 09:09:57;;;;;;;2.70;1.80;;;;;;;;;;5076393;28;20476;-60
2023/09/25 09:12:23;;;;;;;2.58;1.88;;;;;;;;;;5093962;28;20388;-60
2023/09/25 09:14:48;;;;;;;2.60;1.70;;;;;;;;;;5094088;28;20024;-59
2023/09/25 09:17:13;;;;;;;3.33;1.80;;;;;;;;;;5083858;28;20492;-60
2023/09/25 09:19:48;;;;;;;4.30;2.00;;;;;;;;;;5114484;28;20028;-58
2023/09/25 09:22:16;;;;;;;3.95;2.00;;;;;;;;;;5094995;28;20028;-59
2023/09/25 09:24:43;;;;;;;2.08;1.60;;;;;;;;;;5094121;28;20042;-61
2023/09/25 09:27:09;;;;;;;2.35;1.67;;;;;;;;;;5092934;28;20082;-60
2023/09/25 09:29:42;;;;;;;3.13;1.90;;;;;;;;;;5108678;28;20078;-59
2023/09/25 09:32:09;;;;;;;3.35;1.75;;;;;;;;;;5075149;28;20051;-59
2023/09/25 09:34:36;;;;;;;3.55;1.70;;;;;;;;;;5098747;28;20042;-61
2023/09/25 09:37:02;;;;;;;3.83;1.88;;;;;;;;;;5092830;28;20518;-60
2023/09/25 09:39:34;;;;;;;3.55;1.80;;;;;;;;;;5110221;28;20035;-60
2023/09/25 09:42:05;;;;;;;2.72;1.95;;;;;;;;;;5093427;28;20028;-61
2023/09/25 09:44:31;;;;;;;3.17;1.80;;;;;;;;;;5096166;28;20396;-61
2023/09/25 09:46:57;;;;;;;3.05;1.80;;;;;;;;;;5095720;28;20070;-60
2023/09/25 09:49:24;;;;;;;2.50;1.77;;;;;;;;;;5113648;28;20108;-59
2023/09/25 09:51:51;;;;;;;4.07;1.80;;;;;;;;;;5094216;28;20028;-59
2023/09/25 09:54:19;;;;;;;8.50;2.22;;;;;;;;;;5106861;28;20403;-58
2023/09/25 09:56:48;;;;;;;3.70;2.03;;;;;;;;;;5094249;28;20089;-58
2023/09/25 09:59:15;;;;;;;3.10;1.95;;;;;;;;;;5092744;28;20024;-58
2023/09/25 10:01:47;;;;;;;2.97;1.80;;;;;;;;;;5093501;28;20127;-59
2023/09/25 10:04:14;;;;;;;2.88;1.80;;;;;;;;;;5092573;28;20028;-59
2023/09/25 10:06:52;;;;;;;4.60;2.03;;;;;;;;;;5093185;28;20056;-62
2023/09/25 10:09:19;;;;;;;3.60;1.90;;;;;;;;;;5101676;28;20500;-59
2023/09/25 10:11:50;;;;;;;2.20;1.80;;;;;;;;;;5111622;28;20119;-57
2023/09/25 10:14:24;;;;;;;3.05;1.90;;;;;;;;;;5111660;28;20684;-57
2023/09/25 10:16:52;;;;;;;5.07;1.92;;;;;;;;;;5094079;28;20028;-63
2023/09/25 10:19:21;;;;;;;3.38;1.98;;;;;;;;;;5092791;28;20035;-59
2023/09/25 10:22:06;;;;;;;3.63;2.17;;;;;;;;;;5091865;28;20047;-59
2023/09/25 10:24:33;;;;;;;4.85;2.00;;;;;;;;;;5093560;28;20062;-60
2023/09/25 10:26:59;;;;;;;2.30;2.10;;;;;;;;;;5092426;28;20085;-59
2023/09/25 10:29:25;;;;;;;4.63;2.10;;;;;;;;;;5092594;28;20032;-57
2023/09/25 10:31:50;;;;;;;3.58;2.30;;;;;;;;;;5093037;28;20024;-59
2023/09/25 10:34:16;;;;;;;4.10;2.20;;;;;;;;;;5092267;28;20030;-59
2023/09/25 10:36:47;;;;;;;2.95;2.30;;;;;;;;;;5092722;28;20050;-56
2023/09/25 10:39:17;;;;;;;2.75;2.10;;;;;;;;;;5109613;28;20035;-59
2023/09/25 10:41:45;;;;;;;3.70;2.30;;;;;;;;;;5101048;28;20031;-60
2023/09/25 10:44:11;;;;;;;3.35;2.30;;;;;;;;;;5112287;28;20111;-59
2023/09/25 10:46:37;;;;;;;3.20;2.40;;;;;;;;;;5097186;28;20043;-58
2023/09/25 10:49:03;;;;;;;3.25;2.15;;;;;;;;;;5073695;28;20032;-58
2023/09/25 10:51:28;;;;;;;2.50;2.20;;;;;;;;;;5092222;28;20464;-58
2023/09/25 10:53:54;;;;;;;4.18;2.60;;;;;;;;;;5103578;28;20070;-55
2023/09/25 10:56:22;;;;;;;3.42;2.63;;;;;;;;;;5092513;28;20032;-56
2023/09/25 10:58:52;;;;;;;2.75;2.40;;;;;;;;;;5098158;28;20035;-57
2023/09/25 11:01:27;;;;;;;3.00;2.70;;;;;;;;;;5092424;28;20114;-59
2023/09/25 11:03:53;;;;;;;3.88;2.80;;;;;;;;;;5108930;28;20114;-58
2023/09/25 11:06:21;;;;;;;3.38;2.80;;;;;;;;;;5102570;28;20580;-60
2023/09/25 11:08:47;;;;;;;5.25;3.00;;;;;;;;;;5094262;28;20718;-56
2023/09/25 11:11:17;;;;;;;2.65;2.45;;;;;;;;;;5098407;28;20035;-59
2023/09/25 11:13:42;;;;;;;3.50;2.90;;;;;;;;;;5109162;28;20038;-60
2023/09/25 11:16:08;;;;;;;3.22;2.92;;;;;;;;;;5084289;28;20024;-59
2023/09/25 11:18:34;;;;;;;4.18;3.40;;;;;;;;;;5092187;28;20032;-60
2023/09/25 11:21:02;;;;;;;3.70;3.30;;;;;;;;;;5074437;28;20048;-58
2023/09/25 11:23:31;;;;;;;4.50;3.60;;;;;;;;;;5100371;28;20028;-59
2023/09/25 11:25:56;;;;;;;4.60;3.65;;;;;;;;;;5111074;28;20399;-60
2023/09/25 11:28:27;;;;;;;3.88;3.53;;;;;;;;;;5111570;28;20035;-60
2023/09/25 11:30:54;;;;;;;4.25;3.83;;;;;;;;;;5081354;28;20349;-60
2023/09/25 11:33:21;;;;;;;5.13;3.80;;;;;;;;;;5106841;28;20069;-60
2023/09/25 11:35:49;;;;;;;4.60;4.10;;;;;;;;;;5081363;28;20039;-60
2023/09/25 11:38:21;;;;;;;4.57;4.10;;;;;;;;;;5090942;28;20043;-60
2023/09/25 11:40:50;;;;;;;4.70;4.30;;;;;;;;;;5073796;28;20601;-60
2023/09/25 11:43:16;;;;;;;4.57;4.18;;;;;;;;;;5105689;28;20035;-60
2023/09/25 11:45:42;;;;;;;5.15;4.65;;;;;;;;;;5100949;28;20034;-65
2023/09/25 11:48:09;;;;;;;5.35;4.80;;;;;;;;;;5095570;28;20107;-60
2023/09/25 11:50:35;;;;;;;6.28;5.30;;;;;;;;;;5111682;28;20122;-60
2023/09/25 11:53:00;;;;;;;5.05;4.47;;;;;;;;;;5109465;28;20598;-61
2023/09/25 11:55:26;;;;;;;4.78;4.20;;;;;;;;;;5091435;28;20107;-61
2023/09/25 11:57:52;;;;;;;4.53;4.13;;;;;;;;;;5091572;28;20039;-60
2023/09/25 12:00:22;;;;;;;4.90;4.50;;;;;;;;;;5072785;28;20039;-62
2023/09/25 12:02:48;;;;;;;5.30;4.90;;;;;;;;;;5091562;28;20024;-61
2023/09/25 12:05:15;;;;;;;5.28;4.80;;;;;;;;;;5092493;28;20024;-61
2023/09/25 12:07:42;;;;;;;5.50;5.00;;;;;;;;;;5111597;28;20115;-62
2023/09/25 12:10:10;;;;;;;5.75;4.80;;;;;;;;;;5102870;28;20362;-62
2023/09/25 12:12:36;;;;;;;6.43;4.70;;;;;;;;;;5101171;28;20039;-60
2023/09/25 12:15:07;;;;;;;5.53;4.80;;;;;;;;;;5090772;28;20028;-60
2023/09/25 12:17:34;;;;;;;5.50;5.00;;;;;;;;;;5091487;28;20028;-60
2023/09/25 12:20:03;;;;;;;5.40;4.90;;;;;;;;;;5073564;28;20083;-60
2023/09/25 12:22:29;;;;;;;5.50;4.93;;;;;;;;;;5092797;28;20032;-62
2023/09/25 12:24:55;;;;;;;5.82;5.20;;;;;;;;;;5085840;28;20699;-61
2023/09/25 12:27:20;;;;;;;5.30;4.80;;;;;;;;;;5093353;28;20035;-61
2023/09/25 12:29:46;;;;;;;5.93;5.10;;;;;;;;;;5110646;28;20052;-60
2023/09/25 12:32:11;;;;;;;5.90;5.40;;;;;;;;;;5075177;28;20032;-60
2023/09/25 12:34:37;;;;;;;5.53;5.10;;;;;;;;;;5095493;28;20055;-60
2023/09/25 12:37:03;;;;;;;5.72;5.22;;;;;;;;;;5111960;28;20031;-61
2023/09/25 12:39:28;;;;;;;5.75;5.10;;;;;;;;;;5115330;28;20039;-60
2023/09/25 12:41:54;;;;;;;5.80;5.20;;;;;;;;;;5096053;28;20106;-60
2023/09/25 12:44:20;;;;;;;5.90;5.30;;;;;;;;;;5112017;28;20084;-60
2023/09/25 12:46:46;;;;;;;5.63;5.13;;;;;;;;;;5098329;28;20500;-59
2023/09/25 12:49:11;;;;;;;6.03;5.45;;;;;;;;;;5094553;28;20056;-60
2023/09/25 12:51:36;;;;;;;5.57;5.18;;;;;;;;;;5094755;28;20472;-60
2023/09/25 12:54:03;;;;;;;5.78;5.28;;;;;;;;;;5102417;28;20561;-60
2023/09/25 12:56:29;;;;;;;5.80;5.30;;;;;;;;;;5113175;28;20031;-60
2023/09/25 12:58:54;;;;;;;6.88;5.30;;;;;;;;;;5113571;28;20035;-61
2023/09/25 13:01:20;;;;;;;5.90;5.40;;;;;;;;;;5095773;28;20189;-62
2023/09/25 13:03:46;;;;;;;6.47;5.30;;;;;;;;;;5114045;28;20024;-61
2023/09/25 13:06:11;;;;;;;5.80;5.30;;;;;;;;;;5102952;28;20050;-60
2023/09/25 13:08:37;;;;;;;5.70;5.20;;;;;;;;;;5095340;28;20043;-61
2023/09/25 13:11:02;;;;;;;6.00;5.50;;;;;;;;;;5076164;28;20060;-61
2023/09/25 13:13:28;;;;;;;5.70;5.20;;;;;;;;;;5077220;28;20460;-61
2023/09/25 13:15:54;;;;;;;5.60;5.10;;;;;;;;;;5115061;28;20024;-61
2023/09/25 13:18:19;;;;;;;5.78;5.13;;;;;;;;;;5113559;28;20586;-60
2023/09/25 13:20:45;;;;;;;5.72;5.22;;;;;;;;;;5107155;28;20508;-59
2023/09/25 13:23:10;;;;;;;6.40;5.13;;;;;;;;;;5097942;28;20111;-60
2023/09/25 13:25:37;;;;;;;5.97;5.47;;;;;;;;;;5096300;28;20055;-59
2023/09/25 13:28:04;;;;;;;5.80;5.30;;;;;;;;;;5112536;28;20032;-59
2023/09/25 13:30:32;;;;;;;5.80;5.30;;;;;;;;;;5111124;28;20024;-60
2023/09/25 13:32:58;;;;;;;6.05;5.50;;;;;;;;;;5100484;28;20032;-60
2023/09/25 13:35:23;;;;;;;6.05;5.13;;;;;;;;;;5095472;28;20111;-59
2023/09/25 13:37:49;;;;;;;6.25;5.40;;;;;;;;;;5113083;28;20028;-60
2023/09/25 13:40:16;;;;;;;6.80;5.28;;;;;;;;;;5112081;28;20028;-60
2023/09/25 13:42:45;;;;;;;5.75;5.28;;;;;;;;;;5096731;28;20111;-60
2023/09/25 13:45:14;;;;;;;6.03;5.50;;;;;;;;;;5092686;28;20031;-60
2023/09/25 13:47:42;;;;;;;6.07;5.55;;;;;;;;;;5093685;28;20043;-59
2023/09/25 13:50:10;;;;;;;5.88;5.38;;;;;;;;;;5105019;28;20081;-60
2023/09/25 13:52:37;;;;;;;6.03;5.30;;;;;;;;;;5113769;28;20063;-60
2023/09/25 13:55:03;;;;;;;5.95;5.20;;;;;;;;;;5095273;28;20024;-59
2023/09/25 13:57:29;;;;;;;5.70;5.20;;;;;;;;;;5110789;28;20043;-59
2023/09/25 13:59:54;;;;;;;5.95;5.45;;;;;;;;;;5100084;28;20024;-60
2023/09/25 14:02:22;;;;;;;6.82;5.90;;;;;;;;;;5108745;28;20518;-59
2023/09/25 14:04:47;;;;;;;5.57;5.07;;;;;;;;;;5094293;28;20039;-60
2023/09/25 14:07:13;;;;;;;6.10;5.60;;;;;;;;;;5094351;28;20019;-59
2023/09/25 14:09:38;;;;;;;5.80;5.20;;;;;;;;;;5112445;28;20028;-60
2023/09/25 14:12:04;;;;;;;6.28;5.68;;;;;;;;;;5112788;28;20028;-59
2023/09/25 14:14:41;;;;;;;5.80;5.30;;;;;;;;;;5113430;28;20451;-59
2023/09/25 14:17:06;;;;;;;6.00;5.30;;;;;;;;;;5093275;28;20072;-59
2023/09/25 14:19:31;;;;;;;5.90;5.40;;;;;;;;;;5110904;28;20040;-59
2023/09/25 14:21:57;;;;;;;5.80;5.30;;;;;;;;;;5113784;28;20052;-59
2023/09/25 14:24:22;;;;;;;6.10;5.50;;;;;;;;;;5112441;28;20027;-60
2023/09/25 14:26:52;;;;;;;5.93;5.40;;;;;;;;;;5094427;28;20413;-60
2023/09/25 14:29:18;;;;;;;6.10;5.60;;;;;;;;;;5093306;28;20038;-59
2023/09/25 14:31:43;;;;;;;5.82;5.35;;;;;;;;;;5113293;28;20035;-60
2023/09/25 14:34:09;;;;;;;6.35;5.35;;;;;;;;;;5112153;28;20060;-60
2023/09/25 14:36:35;;;;;;;5.70;5.20;;;;;;;;;;5112333;28;20092;-60
2023/09/25 14:39:00;;;;;;;6.20;5.40;;;;;;;;;;5087601;28;20437;-61